Time;durP1;ratioP1;P1;durP2;ratioP2;P2;SDS_P1;SDS_P2;PMS_P1;PMS_P2;Temp;Humidity;BMP_temperature;BMP_pressure;BME280_temperature;BME280_humidity;BME280_pressure;Samples;Min_cycle;Max_cycle;Signal;HPM_P1;HPM_P2
2022/06/17 00:01:39;;;;;;;0.10;0.10;;;14.10;99.90;;;;;;5048676;28;20253;-81
2022/06/17 00:04:05;;;;;;;0.10;0.10;;;14.20;99.90;;;;;;5053971;28;20443;-80
2022/06/17 00:06:38;;;;;;;0.10;0.10;;;14.10;99.90;;;;;;5044162;28;20449;-80
2022/06/17 00:09:06;;;;;;;0.10;0.10;;;14.10;99.90;;;;;;5046765;28;20528;-80
2022/06/17 00:11:35;;;;;;;0.10;0.10;;;14.10;99.90;;;;;;5043050;28;20445;-80
2022/06/17 00:14:02;;;;;;;0.10;0.10;;;14.00;99.90;;;;;;5050936;28;20544;-80
2022/06/17 00:16:29;;;;;;;0.10;0.10;;;14.00;99.90;;;;;;5040208;28;20452;-80
2022/06/17 00:18:54;;;;;;;0.10;0.10;;;14.10;99.90;;;;;;5043486;28;20800;-80
2022/06/17 00:21:33;;;;;;;0.10;0.10;;;14.00;99.90;;;;;;5048534;28;20485;-80
2022/06/17 00:24:00;;;;;;;0.10;0.10;;;14.10;99.90;;;;;;5046201;28;20179;-80
2022/06/17 00:26:26;;;;;;;0.10;0.10;;;14.00;99.90;;;;;;5041699;28;20990;-80
2022/06/17 00:28:51;;;;;;;0.10;0.10;;;14.00;99.90;;;;;;5052223;28;20445;-80
2022/06/17 00:31:17;;;;;;;0.10;0.10;;;13.90;99.90;;;;;;5037390;28;20244;-80
2022/06/17 00:33:43;;;;;;;0.10;0.10;;;14.00;99.90;;;;;;5050964;28;20658;-80
2022/06/17 00:36:17;;;;;;;0.10;0.10;;;13.90;99.90;;;;;;5045196;28;20808;-80
2022/06/17 00:38:45;;;;;;;0.10;0.10;;;13.90;99.90;;;;;;5047210;28;20295;-80
2022/06/17 00:41:22;;;;;;;0.10;0.10;;;13.90;99.90;;;;;;5040509;28;20457;-80
2022/06/17 00:43:47;;;;;;;0.10;0.10;;;13.80;99.90;;;;;;5039788;28;20475;-80
2022/06/17 00:46:33;;;;;;;0.10;0.10;;;13.80;99.90;;;;;;5043220;28;20445;-80
2022/06/17 00:49:21;;;;;;;0.10;0.10;;;13.80;99.90;;;;;;5041492;28;20182;-80
2022/06/17 00:52:05;;;;;;;0.10;0.10;;;13.80;99.90;;;;;;5039018;28;20449;-80
2022/06/17 00:54:39;;;;;;;0.10;0.10;;;13.80;99.90;;;;;;5046619;28;20449;-80
2022/06/17 00:57:22;;;;;;;0.10;0.10;;;13.80;99.90;;;;;;5045506;28;20522;-80
2022/06/17 01:00:17;;;;;;;0.10;0.10;;;13.90;99.90;;;;;;5040463;28;20592;-80
2022/06/17 01:02:47;;;;;;;0.10;0.10;;;13.80;99.90;;;;;;5041275;28;20489;-79
2022/06/17 01:05:14;;;;;;;0.10;0.10;;;13.90;99.90;;;;;;5047927;28;20441;-80
2022/06/17 01:07:51;;;;;;;0.10;0.10;;;13.80;99.90;;;;;;5049433;28;20448;-80
2022/06/17 01:10:19;;;;;;;0.10;0.10;;;13.80;99.90;;;;;;5043728;28;20524;-80
2022/06/17 01:13:14;;;;;;;0.10;0.10;;;13.60;99.90;;;;;;5051421;28;20425;-79
2022/06/17 01:15:42;;;;;;;0.10;0.10;;;13.70;99.90;;;;;;5038446;28;20449;-80
2022/06/17 01:18:09;;;;;;;0.10;0.10;;;13.60;99.90;;;;;;5053464;28;20952;-80
2022/06/17 01:20:37;;;;;;;0.10;0.10;;;13.50;99.90;;;;;;5064879;28;20455;-80
2022/06/17 01:23:10;;;;;;;0.10;0.10;;;13.40;99.90;;;;;;5067943;28;20460;-80
2022/06/17 01:25:45;;;;;;;0.10;0.10;;;13.30;99.90;;;;;;5049989;28;20536;-80
2022/06/17 01:28:14;;;;;;;0.10;0.10;;;13.60;99.90;;;;;;5064010;28;20486;-80
2022/06/17 01:30:47;;;;;;;0.10;0.10;;;13.50;99.90;;;;;;5058150;28;20495;-80
2022/06/17 01:33:20;;;;;;;0.10;0.10;;;13.60;99.90;;;;;;5063373;28;20519;-80
2022/06/17 01:36:04;;;;;;;0.10;0.10;;;13.50;99.90;;;;;;5053036;28;20432;-80
2022/06/17 01:38:31;;;;;;;0.10;0.10;;;13.40;99.90;;;;;;5067137;28;20444;-80
2022/06/17 01:40:59;;;;;;;0.10;0.10;;;13.40;99.90;;;;;;5055864;28;20469;-80
2022/06/17 01:43:36;;;;;;;0.10;0.10;;;13.30;99.90;;;;;;5049848;28;22554;-80
2022/06/17 01:46:05;;;;;;;0.10;0.10;;;13.40;99.90;;;;;;5049150;28;20448;-80
2022/06/17 01:48:36;;;;;;;0.10;0.10;;;13.30;99.90;;;;;;5065702;28;20442;-81
2022/06/17 01:51:05;;;;;;;0.10;0.10;;;13.30;99.90;;;;;;5055338;28;21317;-80
2022/06/17 01:53:36;;;;;;;0.10;0.10;;;13.40;99.90;;;;;;5061144;28;20444;-79
2022/06/17 01:56:08;;;;;;;0.10;0.10;;;13.30;99.90;;;;;;5069679;28;20412;-80
2022/06/17 01:58:54;;;;;;;0.10;0.10;;;13.30;99.90;;;;;;5055704;28;20550;-80
2022/06/17 02:01:22;;;;;;;0.10;0.10;;;13.10;99.90;;;;;;5041303;28;20564;-80
2022/06/17 02:03:54;;;;;;;0.10;0.10;;;13.30;99.90;;;;;;5047128;28;20452;-80
2022/06/17 02:06:51;;;;;;;0.10;0.10;;;13.40;99.90;;;;;;5063110;28;20472;-80
2022/06/17 02:09:18;;;;;;;0.10;0.10;;;13.30;99.90;;;;;;5066146;28;20436;-80
2022/06/17 02:11:43;;;;;;;0.10;0.10;;;13.40;99.90;;;;;;5062520;28;21140;-79
2022/06/17 02:14:09;;;;;;;0.10;0.10;;;13.30;99.90;;;;;;5049760;28;20437;-79
2022/06/17 02:16:40;;;;;;;0.10;0.10;;;13.20;99.90;;;;;;5030188;28;20229;-80
2022/06/17 02:19:06;;;;;;;0.10;0.10;;;13.20;99.90;;;;;;5062143;28;20206;-79
2022/06/17 02:21:40;;;;;;;0.10;0.10;;;13.10;99.90;;;;;;5064312;28;20515;-80
2022/06/17 02:24:07;;;;;;;0.10;0.10;;;13.00;99.90;;;;;;5063988;28;20177;-80
2022/06/17 02:26:34;;;;;;;0.10;0.10;;;12.90;99.90;;;;;;5061622;28;20477;-79
2022/06/17 02:29:04;;;;;;;0.10;0.10;;;12.90;99.90;;;;;;5049558;28;20442;-80
2022/06/17 02:31:31;;;;;;;0.10;0.10;;;12.70;99.90;;;;;;5066355;28;20941;-81
2022/06/17 02:33:57;;;;;;;0.20;0.20;;;13.00;99.90;;;;;;5068178;28;20480;-80
2022/06/17 02:36:32;;;;;;;0.10;0.10;;;13.00;99.90;;;;;;5041811;28;20450;-80
2022/06/17 02:38:59;;;;;;;0.10;0.10;;;12.90;99.90;;;;;;5067124;28;20216;-80
2022/06/17 02:41:26;;;;;;;0.10;0.10;;;12.90;99.90;;;;;;5068816;28;20479;-81
2022/06/17 02:44:01;;;;;;;0.10;0.10;;;12.80;99.90;;;;;;5050904;28;20446;-80
2022/06/17 02:46:35;;;;;;;0.10;0.10;;;12.80;99.90;;;;;;5043885;28;20439;-80
2022/06/17 02:49:04;;;;;;;0.10;0.10;;;12.70;99.90;;;;;;5049327;28;20471;-80
2022/06/17 02:51:32;;;;;;;0.10;0.10;;;12.60;99.90;;;;;;5056977;28;20447;-80
2022/06/17 02:53:59;;;;;;;0.10;0.10;;;12.50;99.90;;;;;;5060272;28;20440;-80
2022/06/17 02:56:28;;;;;;;0.10;0.10;;;12.40;99.90;;;;;;5069980;28;20424;-80
2022/06/17 02:59:17;;;;;;;0.20;0.20;;;12.30;99.90;;;;;;5046462;28;20442;-80
2022/06/17 03:01:44;;;;;;;0.10;0.10;;;12.30;99.90;;;;;;5045063;28;20479;-80
2022/06/17 03:04:17;;;;;;;0.10;0.10;;;12.20;99.90;;;;;;5043308;28;20460;-80
2022/06/17 03:06:48;;;;;;;0.10;0.10;;;12.10;99.90;;;;;;5048733;28;20432;-80
2022/06/17 03:09:22;;;;;;;0.10;0.10;;;12.10;99.90;;;;;;5058620;28;20447;-80
2022/06/17 03:11:55;;;;;;;0.10;0.10;;;12.20;99.90;;;;;;5054573;28;20440;-80
2022/06/17 03:14:24;;;;;;;0.10;0.10;;;12.10;99.90;;;;;;5041761;28;20954;-80
2022/06/17 03:16:57;;;;;;;0.10;0.10;;;12.10;99.90;;;;;;5059910;28;20444;-80
2022/06/17 03:19:25;;;;;;;0.20;0.20;;;12.10;99.90;;;;;;5049608;28;20452;-80
2022/06/17 03:21:50;;;;;;;0.10;0.10;;;12.10;99.90;;;;;;5046880;28;20491;-80
2022/06/17 03:24:42;;;;;;;0.10;0.10;;;12.00;99.90;;;;;;5057120;28;20668;-80
2022/06/17 03:27:27;;;;;;;0.20;0.20;;;12.10;99.90;;;;;;5048249;28;20182;-80
2022/06/17 03:29:56;;;;;;;0.17;0.17;;;12.00;99.90;;;;;;5054845;28;20986;-80
2022/06/17 03:32:28;;;;;;;0.20;0.20;;;12.00;99.90;;;;;;5053397;28;20531;-80
2022/06/17 03:34:55;;;;;;;0.20;0.20;;;12.00;99.90;;;;;;5053392;28;20445;-80
2022/06/17 03:38:08;;;;;;;0.10;0.10;;;12.00;99.90;;;;;;5060110;28;20435;-80
2022/06/17 03:40:45;;;;;;;0.20;0.20;;;11.90;99.90;;;;;;5012906;28;20450;-80
2022/06/17 03:43:18;;;;;;;0.10;0.10;;;12.00;99.90;;;;;;5010389;28;20842;-80
2022/06/17 03:45:59;;;;;;;0.20;0.20;;;12.20;99.90;;;;;;5034011;28;20966;-79
2022/06/17 03:48:29;;;;;;;0.10;0.10;;;12.30;99.90;;;;;;5064887;28;20523;-80
2022/06/17 03:50:55;;;;;;;0.20;0.20;;;12.20;99.90;;;;;;5049406;28;20445;-80
2022/06/17 03:53:26;;;;;;;0.10;0.10;;;12.10;99.90;;;;;;5046876;28;20675;-80
2022/06/17 03:55:54;;;;;;;0.10;0.10;;;12.10;99.90;;;;;;5048666;28;20464;-80
2022/06/17 03:58:21;;;;;;;0.10;0.10;;;12.20;99.90;;;;;;5046040;28;21008;-80
2022/06/17 04:01:01;;;;;;;0.10;0.10;;;12.20;99.90;;;;;;5047333;28;20509;-80
2022/06/17 04:03:32;;;;;;;0.10;0.10;;;12.30;99.90;;;;;;5054429;28;21905;-79
2022/06/17 04:06:05;;;;;;;0.10;0.10;;;12.40;99.90;;;;;;5053836;28;20441;-80
2022/06/17 04:08:31;;;;;;;0.10;0.10;;;12.40;99.90;;;;;;5058021;28;20459;-80
2022/06/17 04:10:58;;;;;;;0.10;0.10;;;12.60;99.90;;;;;;5052065;28;20437;-81
2022/06/17 04:13:29;;;;;;;0.10;0.10;;;12.60;99.90;;;;;;5048441;28;20535;-80
2022/06/17 04:16:17;;;;;;;0.10;0.10;;;12.90;99.90;;;;;;5050175;28;20953;-80
2022/06/17 04:18:43;;;;;;;0.10;0.10;;;13.00;99.90;;;;;;5052384;28;20800;-80
2022/06/17 04:21:14;;;;;;;0.10;0.10;;;13.10;99.90;;;;;;5061158;28;20482;-80
2022/06/17 04:23:41;;;;;;;0.10;0.10;;;13.10;99.90;;;;;;5047839;28;20533;-80
2022/06/17 04:26:30;;;;;;;0.10;0.10;;;13.20;99.90;;;;;;5046131;28;20444;-80
2022/06/17 04:29:05;;;;;;;0.10;0.10;;;13.20;99.90;;;;;;5032076;28;20461;-80
2022/06/17 04:31:32;;;;;;;0.10;0.10;;;13.30;99.90;;;;;;5048575;28;20559;-80
2022/06/17 04:34:07;;;;;;;0.10;0.10;;;13.30;99.90;;;;;;5054577;28;20459;-80
2022/06/17 04:36:44;;;;;;;0.10;0.10;;;13.40;99.90;;;;;;5055809;28;20497;-80
2022/06/17 04:39:31;;;;;;;0.10;0.10;;;13.50;99.90;;;;;;5060284;28;20479;-80
2022/06/17 04:42:00;;;;;;;0.10;0.10;;;13.50;99.90;;;;;;5038738;28;20481;-80
2022/06/17 04:44:26;;;;;;;0.20;0.20;;;13.60;99.90;;;;;;5046782;28;20453;-80
2022/06/17 04:46:58;;;;;;;0.10;0.10;;;13.70;99.90;;;;;;5049367;28;20445;-80
2022/06/17 04:49:26;;;;;;;0.10;0.10;;;13.70;99.90;;;;;;5051113;28;20185;-80
2022/06/17 04:51:58;;;;;;;0.10;0.10;;;13.70;99.90;;;;;;5049295;28;20481;-80
2022/06/17 04:54:25;;;;;;;0.10;0.10;;;13.70;99.90;;;;;;5050690;28;20449;-80
2022/06/17 04:56:51;;;;;;;0.10;0.10;;;13.80;99.90;;;;;;5046212;28;20460;-80
2022/06/17 04:59:22;;;;;;;0.10;0.10;;;13.90;99.90;;;;;;5049977;28;20449;-80
2022/06/17 05:01:51;;;;;;;0.10;0.10;;;14.00;99.90;;;;;;5044456;28;20477;-81
2022/06/17 05:04:17;;;;;;;0.10;0.10;;;14.00;99.90;;;;;;5049060;28;20446;-80
2022/06/17 05:06:42;;;;;;;0.10;0.10;;;14.10;99.90;;;;;;5047412;28;20490;-79
2022/06/17 05:09:23;;;;;;;0.10;0.10;;;14.20;99.90;;;;;;5064380;28;20471;-79
2022/06/17 05:11:53;;;;;;;0.10;0.10;;;14.20;99.90;;;;;;5045952;28;20190;-81
2022/06/17 05:14:40;;;;;;;0.10;0.10;;;14.30;99.90;;;;;;5045907;28;20485;-82
2022/06/17 05:17:05;;;;;;;0.10;0.10;;;14.20;99.90;;;;;;5037501;28;20555;-81
2022/06/17 05:19:31;;;;;;;0.10;0.10;;;14.20;99.90;;;;;;5047005;28;20488;-80
2022/06/17 05:21:57;;;;;;;0.10;0.10;;;14.30;99.90;;;;;;5038790;28;20230;-81
2022/06/17 05:24:23;;;;;;;0.10;0.10;;;14.40;99.90;;;;;;5034041;28;20556;-81
2022/06/17 05:26:51;;;;;;;0.10;0.10;;;14.40;99.90;;;;;;5047532;28;20802;-80
2022/06/17 05:29:16;;;;;;;0.10;0.10;;;14.40;99.90;;;;;;5042045;28;20465;-80
2022/06/17 05:31:42;;;;;;;0.10;0.10;;;14.60;99.90;;;;;;5046284;28;20484;-81
2022/06/17 05:34:09;;;;;;;0.10;0.10;;;14.60;99.90;;;;;;5048011;28;20179;-80
2022/06/17 05:36:34;;;;;;;0.10;0.10;;;14.80;99.90;;;;;;5053826;28;20210;-81
2022/06/17 05:39:00;;;;;;;0.10;0.10;;;14.80;99.90;;;;;;5048952;28;20948;-81
2022/06/17 05:41:25;;;;;;;0.10;0.10;;;14.90;99.90;;;;;;5047433;28;20308;-80
2022/06/17 05:43:51;;;;;;;0.10;0.10;;;15.00;99.90;;;;;;5046402;28;20194;-81
2022/06/17 05:46:18;;;;;;;0.10;0.10;;;15.20;99.90;;;;;;5048602;28;20186;-82
2022/06/17 05:48:44;;;;;;;0.10;0.10;;;15.30;99.90;;;;;;5045329;28;20534;-83
2022/06/17 05:51:12;;;;;;;0.10;0.10;;;15.40;99.90;;;;;;5053480;28;20524;-82
2022/06/17 05:53:37;;;;;;;0.10;0.10;;;15.40;99.90;;;;;;5060517;28;20209;-83
2022/06/17 05:56:03;;;;;;;0.10;0.10;;;15.50;99.90;;;;;;5049944;28;20421;-84
2022/06/17 05:58:28;;;;;;;0.10;0.10;;;15.60;99.90;;;;;;5042191;28;20677;-84
2022/06/17 06:00:54;;;;;;;0.10;0.10;;;15.70;99.90;;;;;;5041425;28;20231;-85
2022/06/17 06:03:24;;;;;;;0.10;0.10;;;15.70;99.90;;;;;;5046131;28;20195;-84
2022/06/17 06:05:49;;;;;;;0.10;0.10;;;15.80;99.90;;;;;;5043108;28;20225;-83
2022/06/17 06:08:15;;;;;;;0.10;0.10;;;15.90;99.90;;;;;;5039314;28;20485;-84
2022/06/17 06:10:41;;;;;;;0.10;0.10;;;16.10;99.90;;;;;;5046282;28;20193;-83
2022/06/17 06:13:07;;;;;;;0.10;0.10;;;16.20;99.90;;;;;;5041921;28;20445;-83
2022/06/17 06:15:40;;;;;;;0.10;0.10;;;16.40;99.90;;;;;;5043564;28;20440;-84
2022/06/17 06:18:07;;;;;;;0.10;0.10;;;16.40;99.90;;;;;;5043684;28;20730;-84
2022/06/17 06:20:33;;;;;;;0.10;0.10;;;16.40;99.90;;;;;;5042741;28;20532;-83
2022/06/17 06:22:58;;;;;;;0.10;0.10;;;16.60;99.90;;;;;;5038763;28;20571;-83
2022/06/17 06:25:24;;;;;;;0.10;0.10;;;16.50;99.90;;;;;;5044564;28;20191;-84
2022/06/17 06:27:50;;;;;;;0.10;0.10;;;16.50;99.90;;;;;;5038460;28;20199;-84
2022/06/17 06:30:27;;;;;;;0.10;0.10;;;16.70;99.90;;;;;;5041806;28;20437;-84
2022/06/17 06:32:56;;;;;;;0.10;0.10;;;16.80;99.90;;;;;;5047001;28;20448;-83
2022/06/17 06:35:26;;;;;;;0.10;0.10;;;17.00;99.90;;;;;;5051568;28;20534;-84
2022/06/17 06:37:51;;;;;;;0.10;0.10;;;17.10;99.90;;;;;;5047396;28;20437;-85
2022/06/17 06:40:18;;;;;;;0.10;0.10;;;17.20;99.90;;;;;;5041973;28;20460;-83
2022/06/17 06:42:45;;;;;;;0.10;0.10;;;17.00;99.90;;;;;;5074226;28;20267;-84
2022/06/17 06:45:18;;;;;;;0.10;0.10;;;17.10;99.90;;;;;;5047592;28;20441;-85
2022/06/17 06:47:45;;;;;;;0.10;0.10;;;17.30;99.90;;;;;;5050761;28;20450;-86
2022/06/17 06:50:20;;;;;;;0.10;0.10;;;17.40;99.90;;;;;;5049745;28;20448;-86
2022/06/17 06:52:46;;;;;;;0.10;0.10;;;17.60;99.90;;;;;;5044635;28;20510;-87
2022/06/17 06:55:13;;;;;;;0.10;0.10;;;17.60;99.90;;;;;;5045202;28;20440;-85
2022/06/17 06:57:51;;;;;;;0.10;0.10;;;17.70;99.90;;;;;;5046011;28;20186;-87
2022/06/17 07:00:20;;;;;;;0.10;0.10;;;17.60;99.90;;;;;;5039757;28;20845;-87
2022/06/17 07:02:46;;;;;;;0.10;0.10;;;17.60;99.90;;;;;;5047481;28;20476;-86
2022/06/17 07:05:12;;;;;;;0.10;0.10;;;17.30;99.90;;;;;;5050869;28;20436;-87
2022/06/17 07:07:38;;;;;;;0.10;0.10;;;17.40;99.90;;;;;;5053153;28;20269;-86
2022/06/17 07:10:05;;;;;;;0.10;0.10;;;17.40;99.90;;;;;;5072891;28;20186;-88
2022/06/17 07:12:32;;;;;;;0.10;0.10;;;17.40;99.90;;;;;;5055339;28;20437;-86
2022/06/17 07:14:57;;;;;;;0.10;0.10;;;17.60;99.90;;;;;;5050270;28;20795;-87
2022/06/17 07:17:23;;;;;;;0.10;0.10;;;17.60;99.90;;;;;;5056233;28;20470;-86
2022/06/17 07:19:48;;;;;;;0.10;0.10;;;17.80;99.90;;;;;;5053021;28;20202;-87
2022/06/17 07:22:14;;;;;;;0.10;0.10;;;17.90;99.90;;;;;;5045267;28;20218;-89
2022/06/17 07:24:39;;;;;;;0.10;0.10;;;17.70;99.90;;;;;;5036814;28;20191;-86
2022/06/17 07:27:05;;;;;;;0.10;0.10;;;17.60;99.90;;;;;;5046668;28;20642;-89
2022/06/17 07:29:30;;;;;;;0.10;0.10;;;17.80;99.90;;;;;;5045999;28;20179;-86
2022/06/17 07:31:56;;;;;;;0.10;0.10;;;17.80;99.90;;;;;;5057463;28;20647;-86
2022/06/17 07:34:21;;;;;;;0.10;0.10;;;18.10;99.90;;;;;;5045581;28;20184;-86
2022/06/17 07:42:15;;;;;;;0.10;0.10;;;18.30;99.90;;;;;;5045898;28;20495;-85
2022/06/17 07:44:40;;;;;;;0.10;0.10;;;18.20;99.90;;;;;;5056610;28;20977;-87
2022/06/17 07:47:15;;;;;;;0.10;0.10;;;18.30;99.90;;;;;;5053284;28;20198;-86
2022/06/17 07:49:41;;;;;;;0.10;0.10;;;18.50;99.90;;;;;;5052597;28;20174;-86
2022/06/17 07:52:07;;;;;;;0.10;0.10;;;18.60;99.90;;;;;;5051088;28;20437;-86
2022/06/17 07:54:32;;;;;;;0.10;0.10;;;18.80;99.90;;;;;;5052126;28;20211;-86
2022/06/17 07:56:58;;;;;;;0.10;0.10;;;19.00;99.90;;;;;;5048647;28;20202;-87
2022/06/17 07:59:23;;;;;;;0.10;0.10;;;19.20;99.90;;;;;;5057989;28;20602;-86
2022/06/17 08:01:49;;;;;;;0.10;0.10;;;19.30;99.90;;;;;;5042273;28;20226;-86
2022/06/17 08:04:14;;;;;;;0.10;0.00;;;19.20;99.90;;;;;;5052353;28;20175;-86
2022/06/17 08:06:40;;;;;;;0.10;0.10;;;19.30;99.90;;;;;;5052656;28;20195;-87
2022/06/17 08:09:05;;;;;;;0.10;0.10;;;19.40;99.90;;;;;;5044825;28;20185;-86
2022/06/17 08:11:31;;;;;;;0.10;0.10;;;19.70;99.90;;;;;;5059382;28;20191;-86
2022/06/17 08:13:56;;;;;;;0.10;0.07;;;19.90;99.90;;;;;;5047549;28;20183;-86
2022/06/17 08:16:22;;;;;;;0.10;0.00;;;19.70;99.90;;;;;;5040073;28;20190;-87
2022/06/17 08:18:48;;;;;;;0.10;0.10;;;19.90;99.90;;;;;;5052120;28;20174;-87
2022/06/17 08:21:13;;;;;;;0.10;0.00;;;20.20;99.90;;;;;;5051983;28;20210;-86
2022/06/17 08:23:39;;;;;;;0.10;0.10;;;20.30;99.90;;;;;;5064355;28;20190;-86
2022/06/17 08:26:05;;;;;;;0.10;0.00;;;20.10;99.90;;;;;;5062148;28;20182;-86
2022/06/17 08:28:31;;;;;;;0.10;0.00;;;20.50;99.90;;;;;;5031821;28;20418;-86
2022/06/17 08:30:57;;;;;;;0.10;0.00;;;20.50;99.90;;;;;;5031838;28;20414;-86
2022/06/17 08:33:29;;;;;;;0.10;0.00;;;20.70;99.90;;;;;;5057745;28;20202;-85
2022/06/17 08:35:59;;;;;;;0.10;0.00;;;21.10;99.90;;;;;;5048629;28;20433;-86
2022/06/17 08:38:28;;;;;;;0.10;0.00;;;21.30;99.90;;;;;;5040591;28;20446;-85
2022/06/17 08:40:53;;;;;;;0.10;0.00;;;21.20;99.90;;;;;;5066525;28;21136;-88
2022/06/17 08:43:50;;;;;;;0.10;0.00;;;21.10;99.90;;;;;;5032289;28;20423;-88
2022/06/17 08:46:30;;;;;;;0.10;0.00;;;21.80;99.90;;;;;;5047052;28;20550;-87
2022/06/17 08:49:18;;;;;;;0.10;0.00;;;21.90;99.90;;;;;;5048855;28;20440;-88
2022/06/17 08:51:57;;;;;;;0.10;0.00;;;22.30;99.90;;;;;;5049989;28;20441;-88
2022/06/17 08:54:38;;;;;;;0.10;0.00;;;22.20;99.90;;;;;;5077347;28;21428;-87
2022/06/17 08:57:17;;;;;;;0.10;0.00;;;21.90;99.90;;;;;;5044433;28;20456;-87
2022/06/17 08:59:54;;;;;;;0.10;0.00;;;21.70;99.90;;;;;;5048098;28;20480;-87
2022/06/17 09:02:29;;;;;;;0.10;0.00;;;21.50;99.90;;;;;;5046157;28;20493;-87
2022/06/17 09:05:15;;;;;;;0.10;0.00;;;21.60;99.90;;;;;;5030023;28;20839;-86
2022/06/17 09:08:03;;;;;;;0.10;0.00;;;21.40;99.90;;;;;;5043803;28;20543;-88
2022/06/17 09:10:53;;;;;;;0.10;0.00;;;21.50;99.90;;;;;;5045755;28;20437;-86
2022/06/17 09:13:36;;;;;;;0.10;0.00;;;21.60;99.90;;;;;;5060936;28;20539;-86
2022/06/17 09:16:22;;;;;;;0.10;0.00;;;21.60;99.90;;;;;;5047403;28;20440;-88
2022/06/17 09:18:53;;;;;;;0.10;0.00;;;22.20;99.90;;;;;;5049935;28;20453;-88
2022/06/17 09:21:28;;;;;;;0.10;0.00;;;22.40;99.90;;;;;;5048807;28;20514;-87
2022/06/17 09:23:56;;;;;;;0.10;0.00;;;22.40;99.90;;;;;;5038498;28;21012;-89
2022/06/17 09:26:29;;;;;;;0.10;0.00;;;22.20;99.90;;;;;;5040651;28;20825;-87
2022/06/17 09:29:05;;;;;;;0.10;0.00;;;21.80;99.90;;;;;;5044750;28;20956;-87
2022/06/17 09:31:39;;;;;;;0.10;0.00;;;22.20;99.90;;;;;;5048471;28;20440;-86
2022/06/17 09:34:11;;;;;;;0.10;0.00;;;22.90;99.90;;;;;;5049558;28;20428;-87
2022/06/17 09:36:46;;;;;;;0.10;0.00;;;22.80;99.90;;;;;;5043622;28;20630;-88
2022/06/17 09:39:19;;;;;;;0.10;0.00;;;23.20;99.90;;;;;;5040922;28;20457;-88
2022/06/17 09:41:48;;;;;;;0.10;0.00;;;23.40;99.90;;;;;;5041923;28;20585;-86
2022/06/17 09:44:21;;;;;;;0.10;0.00;;;23.40;99.90;;;;;;5054011;28;20440;-88
2022/06/17 09:47:02;;;;;;;0.10;0.00;;;23.60;99.90;;;;;;5040034;28;20533;-87
2022/06/17 09:49:47;;;;;;;0.10;0.00;;;23.60;99.90;;;;;;5050694;28;20533;-87
2022/06/17 09:52:19;;;;;;;0.10;0.00;;;23.30;99.90;;;;;;5038245;28;20452;-88
2022/06/17 09:54:53;;;;;;;0.10;0.00;;;23.30;99.90;;;;;;5050890;28;20437;-87
2022/06/17 09:57:27;;;;;;;0.10;0.00;;;22.90;99.90;;;;;;5051201;28;20439;-88
2022/06/17 10:00:10;;;;;;;0.10;0.00;;;22.90;99.90;;;;;;5069095;28;20511;-88
2022/06/17 10:03:11;;;;;;;0.10;0.00;;;23.10;99.90;;;;;;5041939;28;20484;-87
2022/06/17 10:06:00;;;;;;;0.10;0.00;;;23.50;99.90;;;;;;5041155;28;20455;-88
2022/06/17 10:08:53;;;;;;;0.10;0.10;;;23.70;99.90;;;;;;5038353;28;21006;-89
2022/06/17 10:11:39;;;;;;;0.10;0.00;;;23.60;99.90;;;;;;5040508;28;20452;-86
2022/06/17 10:14:25;;;;;;;0.10;0.00;;;23.70;99.90;;;;;;5040490;28;20538;-87
2022/06/17 10:19:57;;;;;;;0.10;0.00;;;23.60;99.90;;;;;;5043294;28;20504;-87
2022/06/17 10:22:57;;;;;;;0.10;0.00;;;23.60;99.90;;;;;;5043799;28;20492;-88
2022/06/17 10:25:37;;;;;;;0.10;0.00;;;23.00;99.90;;;;;;5076635;28;20501;-84
2022/06/17 10:28:31;;;;;;;0.10;0.00;;;22.70;99.90;;;;;;5051178;28;20518;-84
2022/06/17 10:31:05;;;;;;;0.10;0.00;;;23.00;99.90;;;;;;5043014;28;20453;-86
2022/06/17 10:33:33;;;;;;;0.10;0.00;;;23.00;99.90;;;;;;5048729;28;20421;-83
2022/06/17 10:36:00;;;;;;;0.10;0.00;;;23.00;99.90;;;;;;5047947;28;20790;-85
2022/06/17 10:38:32;;;;;;;0.10;0.00;;;22.80;99.90;;;;;;5031123;28;20529;-84
2022/06/17 10:40:59;;;;;;;0.10;0.00;;;22.50;99.90;;;;;;5055083;28;20445;-83
2022/06/17 10:43:36;;;;;;;0.10;0.00;;;22.50;99.90;;;;;;5047216;28;20449;-85
2022/06/17 10:46:03;;;;;;;0.10;0.00;;;22.60;99.90;;;;;;5054658;28;20436;-84
2022/06/17 10:48:48;;;;;;;0.10;0.00;;;22.30;99.90;;;;;;5045985;28;20452;-86
2022/06/17 10:51:14;;;;;;;0.10;0.00;;;22.70;99.90;;;;;;5061612;28;20455;-85
2022/06/17 10:53:49;;;;;;;0.10;0.00;;;22.80;99.90;;;;;;5061872;28;20448;-85
2022/06/17 10:56:24;;;;;;;0.10;0.00;;;22.80;99.90;;;;;;5041785;28;20931;-85
2022/06/17 10:58:59;;;;;;;0.10;0.00;;;22.80;99.90;;;;;;5049241;28;20440;-85
2022/06/17 11:01:25;;;;;;;0.10;0.00;;;22.70;99.90;;;;;;5049694;28;20484;-84
2022/06/17 11:04:11;;;;;;;0.10;0.00;;;22.60;99.90;;;;;;5050421;28;20442;-83
2022/06/17 11:06:51;;;;;;;0.10;0.00;;;22.60;99.90;;;;;;5044468;28;20933;-83
2022/06/17 11:09:22;;;;;;;0.10;0.00;;;22.60;99.90;;;;;;5033718;28;20488;-83
2022/06/17 11:12:02;;;;;;;0.10;0.00;;;22.70;99.90;;;;;;5042939;28;20483;-84
2022/06/17 11:14:45;;;;;;;0.10;0.00;;;22.50;99.90;;;;;;5045633;28;21317;-85
2022/06/17 11:17:20;;;;;;;0.10;0.00;;;22.40;99.90;;;;;;5028605;28;20415;-85
2022/06/17 11:19:49;;;;;;;0.10;0.00;;;22.10;99.90;;;;;;5037222;28;20440;-83
2022/06/17 11:22:36;;;;;;;0.10;0.07;;;22.00;99.90;;;;;;5052768;28;20484;-84
2022/06/17 11:25:28;;;;;;;0.10;0.00;;;21.80;99.90;;;;;;5043356;28;20430;-84
2022/06/17 11:28:08;;;;;;;0.10;0.00;;;21.60;99.90;;;;;;5048103;28;20460;-85
2022/06/17 11:30:34;;;;;;;0.10;0.00;;;21.70;99.90;;;;;;5049264;28;20437;-85
2022/06/17 11:33:01;;;;;;;0.10;0.00;;;21.90;99.90;;;;;;5054630;28;20444;-84
2022/06/17 11:35:29;;;;;;;0.10;0.00;;;21.90;99.90;;;;;;5051191;28;20550;-84
2022/06/17 11:37:57;;;;;;;0.10;0.00;;;21.90;99.90;;;;;;5050667;28;20498;-84
2022/06/17 11:40:32;;;;;;;0.10;0.00;;;21.90;99.90;;;;;;5037381;28;21067;-85
2022/06/17 11:43:02;;;;;;;0.10;0.00;;;21.70;99.90;;;;;;5043888;28;20545;-84
2022/06/17 11:45:28;;;;;;;0.10;0.00;;;21.50;99.90;;;;;;5048846;28;20782;-84
2022/06/17 11:47:59;;;;;;;0.10;0.00;;;21.40;99.90;;;;;;5053959;28;20936;-84
2022/06/17 11:50:40;;;;;;;0.10;0.00;;;21.60;99.90;;;;;;5048665;28;20437;-83
2022/06/17 11:53:12;;;;;;;0.10;0.00;;;21.70;99.90;;;;;;5058841;28;20433;-82
2022/06/17 11:55:47;;;;;;;0.10;0.00;;;21.80;99.90;;;;;;5049240;28;20944;-83
2022/06/17 11:58:17;;;;;;;0.10;0.00;;;21.80;99.90;;;;;;5056096;28;20447;-83
2022/06/17 12:00:54;;;;;;;0.10;0.00;;;21.80;99.90;;;;;;5051666;28;20526;-83
2022/06/17 12:03:41;;;;;;;0.10;0.00;;;21.90;99.90;;;;;;5065030;28;20456;-85
2022/06/17 12:06:19;;;;;;;0.10;0.00;;;22.10;99.90;;;;;;5069607;28;20443;-84
2022/06/17 12:08:50;;;;;;;0.10;0.00;;;22.10;99.90;;;;;;5051865;28;20480;-84
2022/06/17 12:11:25;;;;;;;0.10;0.00;;;21.90;99.90;;;;;;5053883;28;20440;-84
2022/06/17 12:13:56;;;;;;;0.10;0.00;;;21.70;99.90;;;;;;5051327;28;20476;-83
2022/06/17 12:16:41;;;;;;;0.10;0.00;;;21.60;99.90;;;;;;5051353;28;20441;-84
2022/06/17 12:19:11;;;;;;;0.10;0.00;;;21.60;99.90;;;;;;5050758;28;20465;-85
2022/06/17 12:21:56;;;;;;;0.10;0.00;;;21.70;99.90;;;;;;5041526;28;20476;-83
2022/06/17 12:24:40;;;;;;;0.10;0.00;;;21.80;99.90;;;;;;5049152;28;20531;-83
2022/06/17 12:27:24;;;;;;;0.10;0.00;;;22.00;99.90;;;;;;5053428;28;20453;-83
2022/06/17 12:30:28;;;;;;;0.10;0.00;;;22.10;99.90;;;;;;5045509;28;20964;-82
2022/06/17 12:33:10;;;;;;;0.10;0.00;;;21.80;99.90;;;;;;5068552;28;20497;-83
2022/06/17 12:35:42;;;;;;;0.10;0.00;;;21.70;99.90;;;;;;5053776;28;20444;-82
2022/06/17 12:38:42;;;;;;;0.10;0.00;;;22.00;99.90;;;;;;5054096;28;20529;-82
2022/06/17 12:41:47;;;;;;;0.10;0.00;;;22.20;99.90;;;;;;5047540;28;20471;-81
2022/06/17 12:44:43;;;;;;;0.10;0.00;;;22.70;99.90;;;;;;5036942;28;20456;-83
2022/06/17 12:47:49;;;;;;;0.10;0.00;;;22.60;99.90;;;;;;5039482;28;20479;-85
2022/06/17 12:53:35;;;;;;;0.10;0.00;;;22.80;99.90;;;;;;5045521;28;20459;-84
2022/06/17 12:56:17;;;;;;;0.10;0.00;;;22.90;99.90;;;;;;5039445;28;20444;-82
2022/06/17 12:58:45;;;;;;;0.10;0.00;;;22.70;99.90;;;;;;5054303;28;20898;-83
2022/06/17 13:01:25;;;;;;;0.10;0.00;;;22.70;99.90;;;;;;5060252;28;20482;-84
2022/06/17 13:04:13;;;;;;;0.10;0.00;;;22.70;99.90;;;;;;5042144;28;20456;-84
2022/06/17 13:06:54;;;;;;;0.10;0.00;;;22.60;99.90;;;;;;5047773;28;20805;-83
2022/06/17 13:09:30;;;;;;;0.10;0.00;;;22.60;99.90;;;;;;5027869;28;20805;-83
2022/06/17 13:12:02;;;;;;;0.10;0.00;;;22.70;99.90;;;;;;5047713;28;20963;-83
2022/06/17 13:14:47;;;;;;;0.10;0.00;;;22.50;99.90;;;;;;5050993;28;20433;-82
2022/06/17 13:17:29;;;;;;;0.10;0.00;;;22.80;99.90;;;;;;5038298;28;20953;-82
2022/06/17 13:20:09;;;;;;;0.10;0.10;;;22.50;99.90;;;;;;5030939;28;20505;-82
2022/06/17 13:22:53;;;;;;;0.10;0.00;;;22.40;99.90;;;;;;5029210;28;20481;-83
2022/06/17 13:25:34;;;;;;;0.10;0.00;;;22.50;99.90;;;;;;5035806;28;20515;-83
2022/06/17 13:28:19;;;;;;;0.10;0.00;;;22.60;99.90;;;;;;5047841;28;20464;-82
2022/06/17 13:30:49;;;;;;;0.10;0.00;;;22.70;99.90;;;;;;5050555;28;20422;-83